sensor_id;sensor_type;location;lat;lon;timestamp;P1;durP1;ratioP1;P2;durP2;ratioP2
22711;SDS011;11523;50.390;8.072;2023-02-14T02:35:56;15.30;;;10.93;;
22711;SDS011;11523;50.390;8.072;2023-02-14T02:39:11;14.63;;;9.75;;
22711;SDS011;11523;50.390;8.072;2023-02-14T02:46:24;16.75;;;10.85;;
22711;SDS011;11523;50.390;8.072;2023-02-14T02:52:12;16.30;;;11.02;;
22711;SDS011;11523;50.390;8.072;2023-02-14T02:55:02;14.18;;;10.27;;
22711;SDS011;11523;50.390;8.072;2023-02-14T02:57:31;16.13;;;11.40;;
22711;SDS011;11523;50.390;8.072;2023-02-14T02:59:59;15.40;;;11.20;;
22711;SDS011;11523;50.390;8.072;2023-02-14T03:02:28;20.05;;;10.88;;
22711;SDS011;11523;50.390;8.072;2023-02-14T03:04:57;15.77;;;11.23;;
22711;SDS011;11523;50.390;8.072;2023-02-14T03:13:03;15.52;;;11.77;;
22711;SDS011;11523;50.390;8.072;2023-02-14T03:15:42;20.10;;;11.35;;
22711;SDS011;11523;50.390;8.072;2023-02-14T03:18:28;17.05;;;11.93;;
22711;SDS011;11523;50.390;8.072;2023-02-14T03:21:21;15.88;;;10.68;;
22711;SDS011;11523;50.390;8.072;2023-02-14T03:26:38;15.60;;;10.93;;
22711;SDS011;11523;50.390;8.072;2023-02-14T03:34:08;14.85;;;10.85;;
22711;SDS011;11523;50.390;8.072;2023-02-14T03:36:37;17.77;;;11.50;;
22711;SDS011;11523;50.390;8.072;2023-02-14T03:39:13;16.95;;;11.57;;
22711;SDS011;11523;50.390;8.072;2023-02-14T03:41:42;14.73;;;10.80;;
22711;SDS011;11523;50.390;8.072;2023-02-14T03:44:09;14.40;;;10.65;;
22711;SDS011;11523;50.390;8.072;2023-02-14T03:49:05;16.70;;;10.95;;
22711;SDS011;11523;50.390;8.072;2023-02-14T03:51:34;17.25;;;11.48;;
22711;SDS011;11523;50.390;8.072;2023-02-14T03:54:01;16.73;;;10.43;;
22711;SDS011;11523;50.390;8.072;2023-02-14T03:59:10;17.15;;;11.35;;
22711;SDS011;11523;50.390;8.072;2023-02-14T04:01:40;17.05;;;10.98;;
22711;SDS011;11523;50.390;8.072;2023-02-14T04:04:07;17.38;;;11.88;;
22711;SDS011;11523;50.390;8.072;2023-02-14T04:06:34;15.27;;;10.48;;
22711;SDS011;11523;50.390;8.072;2023-02-14T04:09:00;15.57;;;11.10;;
22711;SDS011;11523;50.390;8.072;2023-02-14T04:11:26;15.65;;;10.48;;
22711;SDS011;11523;50.390;8.072;2023-02-14T04:13:52;18.20;;;10.95;;
22711;SDS011;11523;50.390;8.072;2023-02-14T04:16:18;15.98;;;10.52;;
22711;SDS011;11523;50.390;8.072;2023-02-14T04:18:43;16.20;;;10.70;;
22711;SDS011;11523;50.390;8.072;2023-02-14T04:21:28;17.15;;;10.60;;
22711;SDS011;11523;50.390;8.072;2023-02-14T04:23:54;18.25;;;11.18;;
22711;SDS011;11523;50.390;8.072;2023-02-14T04:26:20;16.90;;;10.70;;
22711;SDS011;11523;50.390;8.072;2023-02-14T04:28:46;16.30;;;10.82;;
22711;SDS011;11523;50.390;8.072;2023-02-14T04:31:12;17.05;;;11.77;;
22711;SDS011;11523;50.390;8.072;2023-02-14T04:33:38;14.95;;;10.60;;
22711;SDS011;11523;50.390;8.072;2023-02-14T04:36:04;20.27;;;10.82;;
22711;SDS011;11523;50.390;8.072;2023-02-14T04:38:30;17.52;;;11.18;;
22711;SDS011;11523;50.390;8.072;2023-02-14T04:40:56;15.73;;;11.00;;
22711;SDS011;11523;50.390;8.072;2023-02-14T04:43:22;16.05;;;11.20;;
22711;SDS011;11523;50.390;8.072;2023-02-14T04:45:48;17.10;;;11.50;;
22711;SDS011;11523;50.390;8.072;2023-02-14T04:48:14;17.27;;;11.82;;
22711;SDS011;11523;50.390;8.072;2023-02-14T04:50:40;20.73;;;11.75;;
22711;SDS011;11523;50.390;8.072;2023-02-14T04:53:06;17.48;;;12.00;;
22711;SDS011;11523;50.390;8.072;2023-02-14T04:55:32;19.35;;;11.35;;
22711;SDS011;11523;50.390;8.072;2023-02-14T04:57:58;16.35;;;11.20;;
22711;SDS011;11523;50.390;8.072;2023-02-14T05:00:24;16.63;;;11.43;;
22711;SDS011;11523;50.390;8.072;2023-02-14T05:02:50;15.55;;;10.93;;
22711;SDS011;11523;50.390;8.072;2023-02-14T05:05:16;18.70;;;11.63;;
22711;SDS011;11523;50.390;8.072;2023-02-14T05:07:42;19.17;;;11.63;;
22711;SDS011;11523;50.390;8.072;2023-02-14T05:10:11;17.20;;;11.27;;
22711;SDS011;11523;50.390;8.072;2023-02-14T05:12:37;16.95;;;12.00;;
22711;SDS011;11523;50.390;8.072;2023-02-14T05:15:03;18.60;;;11.38;;
22711;SDS011;11523;50.390;8.072;2023-02-14T05:17:29;14.48;;;10.95;;
22711;SDS011;11523;50.390;8.072;2023-02-14T05:19:55;19.17;;;10.93;;
22711;SDS011;11523;50.390;8.072;2023-02-14T05:22:21;17.35;;;10.98;;
22711;SDS011;11523;50.390;8.072;2023-02-14T05:24:47;17.30;;;10.82;;
22711;SDS011;11523;50.390;8.072;2023-02-14T05:27:13;17.27;;;10.50;;
22711;SDS011;11523;50.390;8.072;2023-02-14T05:29:39;17.83;;;11.40;;
22711;SDS011;11523;50.390;8.072;2023-02-14T05:32:05;17.42;;;11.32;;
22711;SDS011;11523;50.390;8.072;2023-02-14T05:34:32;14.70;;;10.10;;
22711;SDS011;11523;50.390;8.072;2023-02-14T05:36:58;19.15;;;11.02;;
22711;SDS011;11523;50.390;8.072;2023-02-14T05:39:24;15.40;;;11.57;;
22711;SDS011;11523;50.390;8.072;2023-02-14T05:41:50;17.30;;;11.00;;
22711;SDS011;11523;50.390;8.072;2023-02-14T05:44:16;17.25;;;10.80;;
22711;SDS011;11523;50.390;8.072;2023-02-14T05:46:42;16.33;;;10.73;;
22711;SDS011;11523;50.390;8.072;2023-02-14T05:49:07;18.50;;;11.07;;
22711;SDS011;11523;50.390;8.072;2023-02-14T05:51:33;16.55;;;11.27;;
22711;SDS011;11523;50.390;8.072;2023-02-14T05:53:59;17.60;;;10.85;;
22711;SDS011;11523;50.390;8.072;2023-02-14T05:56:25;15.25;;;10.52;;
22711;SDS011;11523;50.390;8.072;2023-02-14T05:58:51;16.95;;;11.02;;
22711;SDS011;11523;50.390;8.072;2023-02-14T06:01:17;14.63;;;10.52;;
22711;SDS011;11523;50.390;8.072;2023-02-14T06:03:43;14.55;;;9.82;;
22711;SDS011;11523;50.390;8.072;2023-02-14T06:06:09;15.95;;;10.20;;
22711;SDS011;11523;50.390;8.072;2023-02-14T06:08:35;16.83;;;10.90;;
22711;SDS011;11523;50.390;8.072;2023-02-14T06:11:01;15.27;;;10.73;;
22711;SDS011;11523;50.390;8.072;2023-02-14T06:13:27;14.77;;;10.65;;
22711;SDS011;11523;50.390;8.072;2023-02-14T06:15:53;14.48;;;10.40;;
22711;SDS011;11523;50.390;8.072;2023-02-14T06:18:19;13.57;;;10.80;;
22711;SDS011;11523;50.390;8.072;2023-02-14T06:20:45;16.45;;;10.70;;
22711;SDS011;11523;50.390;8.072;2023-02-14T06:23:11;16.42;;;10.93;;
22711;SDS011;11523;50.390;8.072;2023-02-14T06:25:37;17.17;;;12.20;;
22711;SDS011;11523;50.390;8.072;2023-02-14T06:28:03;15.77;;;11.68;;
22711;SDS011;11523;50.390;8.072;2023-02-14T06:30:29;16.10;;;11.20;;
22711;SDS011;11523;50.390;8.072;2023-02-14T06:32:54;14.93;;;10.98;;
22711;SDS011;11523;50.390;8.072;2023-02-14T06:35:21;17.83;;;11.27;;
22711;SDS011;11523;50.390;8.072;2023-02-14T06:37:47;14.60;;;10.45;;
22711;SDS011;11523;50.390;8.072;2023-02-14T06:40:13;16.38;;;11.23;;
22711;SDS011;11523;50.390;8.072;2023-02-14T06:42:39;14.63;;;10.38;;
22711;SDS011;11523;50.390;8.072;2023-02-14T06:45:05;19.20;;;10.65;;
22711;SDS011;11523;50.390;8.072;2023-02-14T06:47:31;17.73;;;11.27;;
22711;SDS011;11523;50.390;8.072;2023-02-14T06:49:57;20.50;;;11.20;;
22711;SDS011;11523;50.390;8.072;2023-02-14T06:52:24;17.30;;;12.15;;
22711;SDS011;11523;50.390;8.072;2023-02-14T06:54:50;17.42;;;11.00;;
22711;SDS011;11523;50.390;8.072;2023-02-14T06:57:16;13.38;;;10.63;;
22711;SDS011;11523;50.390;8.072;2023-02-14T06:59:41;14.60;;;10.75;;
22711;SDS011;11523;50.390;8.072;2023-02-14T07:02:09;18.25;;;11.10;;
22711;SDS011;11523;50.390;8.072;2023-02-14T07:04:35;21.13;;;11.55;;
22711;SDS011;11523;50.390;8.072;2023-02-14T07:07:01;21.48;;;11.73;;
22711;SDS011;11523;50.390;8.072;2023-02-14T07:09:27;16.35;;;10.93;;
22711;SDS011;11523;50.390;8.072;2023-02-14T07:11:53;14.32;;;10.95;;
22711;SDS011;11523;50.390;8.072;2023-02-14T07:14:19;18.98;;;12.52;;
22711;SDS011;11523;50.390;8.072;2023-02-14T07:16:45;19.33;;;12.52;;
22711;SDS011;11523;50.390;8.072;2023-02-14T07:19:11;20.38;;;13.38;;
22711;SDS011;11523;50.390;8.072;2023-02-14T07:21:36;21.02;;;12.38;;
22711;SDS011;11523;50.390;8.072;2023-02-14T07:24:02;18.92;;;13.20;;
22711;SDS011;11523;50.390;8.072;2023-02-14T07:26:28;22.95;;;14.05;;
22711;SDS011;11523;50.390;8.072;2023-02-14T07:28:54;26.48;;;14.60;;
22711;SDS011;11523;50.390;8.072;2023-02-14T07:31:20;55.38;;;15.43;;
22711;SDS011;11523;50.390;8.072;2023-02-14T07:33:47;49.25;;;15.30;;
22711;SDS011;11523;50.390;8.072;2023-02-14T07:36:13;63.17;;;16.77;;
22711;SDS011;11523;50.390;8.072;2023-02-14T07:38:39;26.65;;;14.65;;
22711;SDS011;11523;50.390;8.072;2023-02-14T07:41:05;51.95;;;16.17;;
22711;SDS011;11523;50.390;8.072;2023-02-14T07:43:30;40.08;;;16.45;;
22711;SDS011;11523;50.390;8.072;2023-02-14T07:45:58;37.25;;;17.13;;
22711;SDS011;11523;50.390;8.072;2023-02-14T07:48:24;59.85;;;16.27;;
22711;SDS011;11523;50.390;8.072;2023-02-14T07:50:50;40.15;;;15.50;;
22711;SDS011;11523;50.390;8.072;2023-02-14T07:53:16;25.23;;;15.07;;
22711;SDS011;11523;50.390;8.072;2023-02-14T07:55:42;25.98;;;15.38;;
22711;SDS011;11523;50.390;8.072;2023-02-14T07:58:08;43.55;;;17.10;;
22711;SDS011;11523;50.390;8.072;2023-02-14T08:00:34;44.72;;;18.25;;
22711;SDS011;11523;50.390;8.072;2023-02-14T08:03:00;34.33;;;16.75;;
22711;SDS011;11523;50.390;8.072;2023-02-14T08:05:26;33.42;;;16.73;;
22711;SDS011;11523;50.390;8.072;2023-02-14T08:07:52;34.55;;;16.52;;
22711;SDS011;11523;50.390;8.072;2023-02-14T08:10:24;38.88;;;17.50;;
22711;SDS011;11523;50.390;8.072;2023-02-14T08:12:56;32.22;;;17.35;;
22711;SDS011;11523;50.390;8.072;2023-02-14T08:15:22;33.28;;;17.30;;
22711;SDS011;11523;50.390;8.072;2023-02-14T08:18:07;28.80;;;16.20;;
22711;SDS011;11523;50.390;8.072;2023-02-14T08:20:33;29.65;;;16.30;;
22711;SDS011;11523;50.390;8.072;2023-02-14T08:22:59;28.67;;;16.27;;
22711;SDS011;11523;50.390;8.072;2023-02-14T08:25:25;40.38;;;17.95;;
22711;SDS011;11523;50.390;8.072;2023-02-14T08:27:50;31.75;;;17.45;;
22711;SDS011;11523;50.390;8.072;2023-02-14T08:30:16;38.63;;;19.92;;
22711;SDS011;11523;50.390;8.072;2023-02-14T08:32:42;41.72;;;19.02;;
22711;SDS011;11523;50.390;8.072;2023-02-14T08:35:08;31.13;;;17.67;;
22711;SDS011;11523;50.390;8.072;2023-02-14T08:37:34;34.42;;;17.70;;
22711;SDS011;11523;50.390;8.072;2023-02-14T08:40:00;31.08;;;17.90;;
22711;SDS011;11523;50.390;8.072;2023-02-14T08:42:26;31.42;;;17.65;;
22711;SDS011;11523;50.390;8.072;2023-02-14T08:44:53;32.70;;;17.60;;
22711;SDS011;11523;50.390;8.072;2023-02-14T08:47:19;34.60;;;19.20;;
22711;SDS011;11523;50.390;8.072;2023-02-14T08:49:45;31.55;;;18.67;;
22711;SDS011;11523;50.390;8.072;2023-02-14T08:52:11;31.85;;;19.30;;
22711;SDS011;11523;50.390;8.072;2023-02-14T08:54:37;31.40;;;18.65;;
22711;SDS011;11523;50.390;8.072;2023-02-14T08:57:03;38.38;;;20.50;;
22711;SDS011;11523;50.390;8.072;2023-02-14T08:59:29;33.42;;;19.80;;
22711;SDS011;11523;50.390;8.072;2023-02-14T09:01:54;34.17;;;19.88;;
22711;SDS011;11523;50.390;8.072;2023-02-14T09:04:20;36.60;;;20.20;;
22711;SDS011;11523;50.390;8.072;2023-02-14T09:06:46;36.95;;;21.55;;
22711;SDS011;11523;50.390;8.072;2023-02-14T09:09:12;36.92;;;21.00;;
22711;SDS011;11523;50.390;8.072;2023-02-14T09:11:38;35.05;;;21.13;;
22711;SDS011;11523;50.390;8.072;2023-02-14T09:14:04;39.13;;;20.95;;
22711;SDS011;11523;50.390;8.072;2023-02-14T09:16:30;38.95;;;21.35;;
22711;SDS011;11523;50.390;8.072;2023-02-14T09:18:56;38.00;;;21.27;;
22711;SDS011;11523;50.390;8.072;2023-02-14T09:21:23;39.47;;;21.30;;
22711;SDS011;11523;50.390;8.072;2023-02-14T09:23:49;38.88;;;22.05;;
22711;SDS011;11523;50.390;8.072;2023-02-14T09:26:16;39.22;;;22.92;;
22711;SDS011;11523;50.390;8.072;2023-02-14T09:28:42;42.42;;;22.65;;
22711;SDS011;11523;50.390;8.072;2023-02-14T09:31:12;43.22;;;23.65;;
22711;SDS011;11523;50.390;8.072;2023-02-14T09:33:38;42.88;;;24.42;;
22711;SDS011;11523;50.390;8.072;2023-02-14T09:36:23;38.20;;;21.58;;
22711;SDS011;11523;50.390;8.072;2023-02-14T09:41:48;43.95;;;22.63;;
22711;SDS011;11523;50.390;8.072;2023-02-14T09:46:44;42.40;;;23.25;;
22711;SDS011;11523;50.390;8.072;2023-02-14T09:49:14;45.55;;;24.63;;
22711;SDS011;11523;50.390;8.072;2023-02-14T09:51:44;41.15;;;23.30;;
22711;SDS011;11523;50.390;8.072;2023-02-14T09:54:11;39.67;;;22.80;;
22711;SDS011;11523;50.390;8.072;2023-02-14T09:59:16;37.58;;;22.33;;
22711;SDS011;11523;50.390;8.072;2023-02-14T10:01:45;35.67;;;21.33;;
22711;SDS011;11523;50.390;8.072;2023-02-14T10:09:19;32.50;;;19.08;;
22711;SDS011;11523;50.390;8.072;2023-02-14T10:11:47;38.47;;;20.95;;
22711;SDS011;11523;50.390;8.072;2023-02-14T10:14:15;37.58;;;21.50;;
22711;SDS011;11523;50.390;8.072;2023-02-14T10:16:49;38.00;;;20.52;;
22711;SDS011;11523;50.390;8.072;2023-02-14T10:19:24;33.10;;;20.42;;
22711;SDS011;11523;50.390;8.072;2023-02-14T10:21:58;33.70;;;20.08;;
22711;SDS011;11523;50.390;8.072;2023-02-14T10:24:29;41.55;;;22.85;;
22711;SDS011;11523;50.390;8.072;2023-02-14T10:27:00;36.25;;;21.63;;
22711;SDS011;11523;50.390;8.072;2023-02-14T10:29:27;34.78;;;20.58;;
22711;SDS011;11523;50.390;8.072;2023-02-14T10:31:56;33.72;;;20.50;;
22711;SDS011;11523;50.390;8.072;2023-02-14T10:37:09;41.63;;;22.20;;
22711;SDS011;11523;50.390;8.072;2023-02-14T10:45:03;37.35;;;22.98;;
22711;SDS011;11523;50.390;8.072;2023-02-14T10:47:36;31.52;;;19.88;;
22711;SDS011;11523;50.390;8.072;2023-02-14T10:55:19;31.15;;;18.33;;
22711;SDS011;11523;50.390;8.072;2023-02-14T10:57:47;31.50;;;20.80;;
22711;SDS011;11523;50.390;8.072;2023-02-14T11:00:16;31.80;;;19.23;;
22711;SDS011;11523;50.390;8.072;2023-02-14T11:02:45;32.75;;;19.55;;
22711;SDS011;11523;50.390;8.072;2023-02-14T11:07:56;34.10;;;21.50;;
22711;SDS011;11523;50.390;8.072;2023-02-14T11:10:24;38.40;;;23.55;;
22711;SDS011;11523;50.390;8.072;2023-02-14T11:12:51;35.47;;;21.98;;
22711;SDS011;11523;50.390;8.072;2023-02-14T11:15:21;34.88;;;21.23;;
22711;SDS011;11523;50.390;8.072;2023-02-14T11:17:48;34.60;;;20.65;;
22711;SDS011;11523;50.390;8.072;2023-02-14T11:22:46;34.83;;;19.80;;
22711;SDS011;11523;50.390;8.072;2023-02-14T11:27:45;27.88;;;19.15;;
22711;SDS011;11523;50.390;8.072;2023-02-14T11:30:33;28.95;;;18.75;;
22711;SDS011;11523;50.390;8.072;2023-02-14T11:33:28;33.03;;;20.95;;
22711;SDS011;11523;50.390;8.072;2023-02-14T11:35:55;33.10;;;19.38;;
22711;SDS011;11523;50.390;8.072;2023-02-14T11:40:53;36.70;;;24.00;;
22711;SDS011;11523;50.390;8.072;2023-02-14T11:43:29;40.30;;;23.75;;
22711;SDS011;11523;50.390;8.072;2023-02-14T11:46:03;36.17;;;22.73;;
22711;SDS011;11523;50.390;8.072;2023-02-14T11:48:29;40.33;;;24.05;;
22711;SDS011;11523;50.390;8.072;2023-02-14T11:50:59;39.90;;;23.90;;
22711;SDS011;11523;50.390;8.072;2023-02-14T11:53:27;37.47;;;23.83;;
22711;SDS011;11523;50.390;8.072;2023-02-14T11:55:54;40.30;;;22.98;;
22711;SDS011;11523;50.390;8.072;2023-02-14T12:01:06;35.80;;;21.52;;
22711;SDS011;11523;50.390;8.072;2023-02-14T12:03:37;38.45;;;23.83;;
22711;SDS011;11523;50.390;8.072;2023-02-14T12:06:03;33.75;;;20.98;;
22711;SDS011;11523;50.390;8.072;2023-02-14T12:08:30;37.38;;;21.65;;
22711;SDS011;11523;50.390;8.072;2023-02-14T12:11:00;35.35;;;21.50;;
22711;SDS011;11523;50.390;8.072;2023-02-14T12:13:26;34.13;;;20.38;;
22711;SDS011;11523;50.390;8.072;2023-02-14T12:15:52;35.85;;;21.45;;
22711;SDS011;11523;50.390;8.072;2023-02-14T12:18:31;37.05;;;20.88;;
22711;SDS011;11523;50.390;8.072;2023-02-14T12:23:39;35.15;;;21.13;;
22711;SDS011;11523;50.390;8.072;2023-02-14T12:31:36;32.85;;;19.80;;
22711;SDS011;11523;50.390;8.072;2023-02-14T12:34:02;33.00;;;19.67;;
22711;SDS011;11523;50.390;8.072;2023-02-14T12:42:02;36.20;;;21.50;;
22711;SDS011;11523;50.390;8.072;2023-02-14T12:44:38;33.65;;;20.23;;
22711;SDS011;11523;50.390;8.072;2023-02-14T12:49:38;33.05;;;18.23;;
22711;SDS011;11523;50.390;8.072;2023-02-14T13:05:30;25.48;;;17.50;;
22711;SDS011;11523;50.390;8.072;2023-02-14T13:10:35;25.58;;;16.25;;
22711;SDS011;11523;50.390;8.072;2023-02-14T13:13:06;22.70;;;15.23;;
22711;SDS011;11523;50.390;8.072;2023-02-14T13:15:48;20.90;;;15.20;;
22711;SDS011;11523;50.390;8.072;2023-02-14T13:23:30;22.20;;;14.73;;
22711;SDS011;11523;50.390;8.072;2023-02-14T13:26:10;22.50;;;15.38;;
22711;SDS011;11523;50.390;8.072;2023-02-14T13:28:36;24.40;;;15.55;;
22711;SDS011;11523;50.390;8.072;2023-02-14T13:31:03;24.77;;;16.30;;
22711;SDS011;11523;50.390;8.072;2023-02-14T13:33:40;24.13;;;15.23;;
22711;SDS011;11523;50.390;8.072;2023-02-14T13:36:09;23.40;;;15.95;;
22711;SDS011;11523;50.390;8.072;2023-02-14T13:38:37;23.77;;;17.55;;
22711;SDS011;11523;50.390;8.072;2023-02-14T13:41:05;23.10;;;15.95;;
22711;SDS011;11523;50.390;8.072;2023-02-14T13:43:45;24.38;;;16.33;;
22711;SDS011;11523;50.390;8.072;2023-02-14T13:46:11;25.90;;;16.35;;
22711;SDS011;11523;50.390;8.072;2023-02-14T13:48:38;22.38;;;15.27;;
22711;SDS011;11523;50.390;8.072;2023-02-14T13:51:05;24.00;;;16.25;;
22711;SDS011;11523;50.390;8.072;2023-02-14T13:53:45;26.63;;;16.80;;
22711;SDS011;11523;50.390;8.072;2023-02-14T13:58:52;28.15;;;18.73;;
22711;SDS011;11523;50.390;8.072;2023-02-14T14:03:58;30.33;;;17.83;;
22711;SDS011;11523;50.390;8.072;2023-02-14T14:06:24;31.13;;;18.58;;
22711;SDS011;11523;50.390;8.072;2023-02-14T14:08:52;26.75;;;17.60;;
22711;SDS011;11523;50.390;8.072;2023-02-14T14:13:55;29.60;;;17.17;;
22711;SDS011;11523;50.390;8.072;2023-02-14T14:26:44;26.65;;;17.30;;
22711;SDS011;11523;50.390;8.072;2023-02-14T14:29:21;27.42;;;18.00;;
22711;SDS011;11523;50.390;8.072;2023-02-14T14:31:48;26.40;;;17.17;;
22711;SDS011;11523;50.390;8.072;2023-02-14T14:34:19;28.17;;;16.45;;
22711;SDS011;11523;50.390;8.072;2023-02-14T14:36:45;27.08;;;17.17;;
22711;SDS011;11523;50.390;8.072;2023-02-14T14:39:11;27.48;;;17.70;;
22711;SDS011;11523;50.390;8.072;2023-02-14T14:41:38;28.33;;;18.30;;
22711;SDS011;11523;50.390;8.072;2023-02-14T14:44:05;26.20;;;16.90;;
22711;SDS011;11523;50.390;8.072;2023-02-14T14:46:31;27.30;;;17.02;;
22711;SDS011;11523;50.390;8.072;2023-02-14T14:48:57;24.48;;;16.52;;
22711;SDS011;11523;50.390;8.072;2023-02-14T14:51:27;23.85;;;16.42;;
22711;SDS011;11523;50.390;8.072;2023-02-14T14:53:59;24.45;;;16.60;;
22711;SDS011;11523;50.390;8.072;2023-02-14T14:56:26;26.00;;;16.67;;
22711;SDS011;11523;50.390;8.072;2023-02-14T14:58:54;24.30;;;16.55;;
22711;SDS011;11523;50.390;8.072;2023-02-14T15:01:54;24.77;;;16.73;;
22711;SDS011;11523;50.390;8.072;2023-02-14T15:06:49;25.45;;;17.17;;
22711;SDS011;11523;50.390;8.072;2023-02-14T15:09:18;23.83;;;16.08;;
22711;SDS011;11523;50.390;8.072;2023-02-14T15:11:45;26.63;;;17.10;;
22711;SDS011;11523;50.390;8.072;2023-02-14T15:14:31;25.30;;;18.02;;
22711;SDS011;11523;50.390;8.072;2023-02-14T15:16:59;27.05;;;17.90;;
22711;SDS011;11523;50.390;8.072;2023-02-14T15:19:33;26.08;;;17.75;;
22711;SDS011;11523;50.390;8.072;2023-02-14T15:22:01;24.05;;;16.23;;
22711;SDS011;11523;50.390;8.072;2023-02-14T15:24:28;26.33;;;18.27;;
22711;SDS011;11523;50.390;8.072;2023-02-14T15:26:57;28.38;;;17.58;;
22711;SDS011;11523;50.390;8.072;2023-02-14T15:29:24;27.67;;;18.30;;
22711;SDS011;11523;50.390;8.072;2023-02-14T15:31:50;28.15;;;19.10;;
22711;SDS011;11523;50.390;8.072;2023-02-14T15:34:21;27.13;;;18.33;;
22711;SDS011;11523;50.390;8.072;2023-02-14T15:36:48;27.05;;;18.05;;
22711;SDS011;11523;50.390;8.072;2023-02-14T15:39:16;26.17;;;18.67;;
22711;SDS011;11523;50.390;8.072;2023-02-14T15:41:43;27.63;;;18.75;;
22711;SDS011;11523;50.390;8.072;2023-02-14T15:44:17;26.83;;;18.42;;
22711;SDS011;11523;50.390;8.072;2023-02-14T15:46:43;29.40;;;17.50;;
22711;SDS011;11523;50.390;8.072;2023-02-14T15:49:09;26.92;;;19.23;;
22711;SDS011;11523;50.390;8.072;2023-02-14T15:51:36;28.92;;;18.85;;
22711;SDS011;11523;50.390;8.072;2023-02-14T15:54:03;27.65;;;19.63;;
22711;SDS011;11523;50.390;8.072;2023-02-14T15:56:30;27.65;;;19.63;;
22711;SDS011;11523;50.390;8.072;2023-02-14T15:58:59;28.58;;;18.95;;
22711;SDS011;11523;50.390;8.072;2023-02-14T16:01:26;29.05;;;19.02;;
22711;SDS011;11523;50.390;8.072;2023-02-14T16:03:54;28.05;;;18.77;;
22711;SDS011;11523;50.390;8.072;2023-02-14T16:08:56;32.38;;;20.60;;
22711;SDS011;11523;50.390;8.072;2023-02-14T16:11:26;29.80;;;19.85;;
22711;SDS011;11523;50.390;8.072;2023-02-14T16:13:53;31.50;;;19.90;;
22711;SDS011;11523;50.390;8.072;2023-02-14T16:16:20;30.13;;;20.30;;
22711;SDS011;11523;50.390;8.072;2023-02-14T16:18:50;31.58;;;20.83;;
22711;SDS011;11523;50.390;8.072;2023-02-14T16:23:44;29.23;;;20.15;;
22711;SDS011;11523;50.390;8.072;2023-02-14T16:26:10;29.67;;;20.17;;
22711;SDS011;11523;50.390;8.072;2023-02-14T16:28:36;29.92;;;20.48;;
22711;SDS011;11523;50.390;8.072;2023-02-14T16:31:03;28.83;;;20.27;;
22711;SDS011;11523;50.390;8.072;2023-02-14T16:33:34;29.88;;;20.15;;
22711;SDS011;11523;50.390;8.072;2023-02-14T16:36:22;30.42;;;20.88;;
22711;SDS011;11523;50.390;8.072;2023-02-14T16:38:47;31.90;;;21.42;;
22711;SDS011;11523;50.390;8.072;2023-02-14T16:41:15;30.65;;;20.65;;
22711;SDS011;11523;50.390;8.072;2023-02-14T16:43:42;32.13;;;21.83;;
22711;SDS011;11523;50.390;8.072;2023-02-14T16:46:09;32.42;;;21.40;;
22711;SDS011;11523;50.390;8.072;2023-02-14T16:48:36;30.67;;;21.25;;
22711;SDS011;11523;50.390;8.072;2023-02-14T16:51:02;29.65;;;20.90;;
22711;SDS011;11523;50.390;8.072;2023-02-14T16:53:28;31.20;;;21.48;;
22711;SDS011;11523;50.390;8.072;2023-02-14T16:55:54;32.95;;;21.00;;
22711;SDS011;11523;50.390;8.072;2023-02-14T16:58:21;34.00;;;22.38;;
22711;SDS011;11523;50.390;8.072;2023-02-14T17:00:48;32.00;;;20.77;;
22711;SDS011;11523;50.390;8.072;2023-02-14T17:03:14;34.35;;;23.20;;
22711;SDS011;11523;50.390;8.072;2023-02-14T17:05:40;37.42;;;24.95;;
22711;SDS011;11523;50.390;8.072;2023-02-14T17:08:06;42.40;;;28.10;;
22711;SDS011;11523;50.390;8.072;2023-02-14T17:10:34;38.00;;;23.30;;
22711;SDS011;11523;50.390;8.072;2023-02-14T17:13:00;38.97;;;25.05;;
22711;SDS011;11523;50.390;8.072;2023-02-14T17:15:26;37.75;;;24.38;;
22711;SDS011;11523;50.390;8.072;2023-02-14T17:17:55;32.55;;;22.30;;
22711;SDS011;11523;50.390;8.072;2023-02-14T17:20:21;32.10;;;23.33;;
22711;SDS011;11523;50.390;8.072;2023-02-14T17:22:54;33.67;;;22.30;;
22711;SDS011;11523;50.390;8.072;2023-02-14T17:25:21;27.15;;;17.08;;
22711;SDS011;11523;50.390;8.072;2023-02-14T17:27:53;38.60;;;26.63;;
22711;SDS011;11523;50.390;8.072;2023-02-14T17:30:20;31.08;;;22.65;;
22711;SDS011;11523;50.390;8.072;2023-02-14T17:32:46;31.60;;;21.23;;
22711;SDS011;11523;50.390;8.072;2023-02-14T17:35:13;34.05;;;23.92;;
22711;SDS011;11523;50.390;8.072;2023-02-14T17:37:39;34.00;;;24.38;;
22711;SDS011;11523;50.390;8.072;2023-02-14T17:40:06;35.35;;;24.02;;
22711;SDS011;11523;50.390;8.072;2023-02-14T17:42:32;35.53;;;23.35;;
22711;SDS011;11523;50.390;8.072;2023-02-14T17:44:58;33.90;;;23.58;;
22711;SDS011;11523;50.390;8.072;2023-02-14T17:47:24;32.45;;;22.90;;
22711;SDS011;11523;50.390;8.072;2023-02-14T17:49:50;40.85;;;28.55;;
22711;SDS011;11523;50.390;8.072;2023-02-14T17:52:16;38.22;;;26.02;;
22711;SDS011;11523;50.390;8.072;2023-02-14T17:54:42;35.10;;;24.67;;
22711;SDS011;11523;50.390;8.072;2023-02-14T17:57:08;38.35;;;25.95;;
22711;SDS011;11523;50.390;8.072;2023-02-14T17:59:34;34.83;;;23.73;;
22711;SDS011;11523;50.390;8.072;2023-02-14T18:02:00;35.63;;;24.63;;
22711;SDS011;11523;50.390;8.072;2023-02-14T18:04:26;37.95;;;25.60;;
22711;SDS011;11523;50.390;8.072;2023-02-14T18:06:54;37.53;;;25.42;;
22711;SDS011;11523;50.390;8.072;2023-02-14T18:09:20;37.35;;;25.83;;
22711;SDS011;11523;50.390;8.072;2023-02-14T18:11:46;35.72;;;23.60;;
22711;SDS011;11523;50.390;8.072;2023-02-14T18:14:13;34.05;;;23.70;;
22711;SDS011;11523;50.390;8.072;2023-02-14T18:16:41;35.47;;;25.17;;
22711;SDS011;11523;50.390;8.072;2023-02-14T18:19:07;38.85;;;24.92;;
22711;SDS011;11523;50.390;8.072;2023-02-14T18:21:34;42.03;;;24.42;;
22711;SDS011;11523;50.390;8.072;2023-02-14T18:24:01;35.72;;;24.23;;
22711;SDS011;11523;50.390;8.072;2023-02-14T18:26:27;36.50;;;25.10;;
22711;SDS011;11523;50.390;8.072;2023-02-14T18:28:53;36.70;;;24.75;;
22711;SDS011;11523;50.390;8.072;2023-02-14T18:31:19;40.78;;;26.77;;
22711;SDS011;11523;50.390;8.072;2023-02-14T18:33:46;37.10;;;24.73;;
22711;SDS011;11523;50.390;8.072;2023-02-14T18:36:13;40.40;;;26.55;;
22711;SDS011;11523;50.390;8.072;2023-02-14T18:38:40;36.88;;;26.35;;
22711;SDS011;11523;50.390;8.072;2023-02-14T18:41:07;35.72;;;24.40;;
22711;SDS011;11523;50.390;8.072;2023-02-14T18:43:33;34.53;;;24.70;;
22711;SDS011;11523;50.390;8.072;2023-02-14T18:46:03;38.10;;;26.02;;
22711;SDS011;11523;50.390;8.072;2023-02-14T18:48:29;34.85;;;24.08;;
22711;SDS011;11523;50.390;8.072;2023-02-14T18:50:55;37.70;;;25.23;;
22711;SDS011;11523;50.390;8.072;2023-02-14T18:53:21;36.25;;;24.85;;
22711;SDS011;11523;50.390;8.072;2023-02-14T18:55:47;38.67;;;26.65;;
22711;SDS011;11523;50.390;8.072;2023-02-14T18:58:13;37.80;;;25.95;;
22711;SDS011;11523;50.390;8.072;2023-02-14T19:00:39;39.20;;;27.30;;
22711;SDS011;11523;50.390;8.072;2023-02-14T19:03:05;43.42;;;28.55;;
22711;SDS011;11523;50.390;8.072;2023-02-14T19:05:31;39.55;;;25.38;;
22711;SDS011;11523;50.390;8.072;2023-02-14T19:07:58;38.72;;;26.17;;
22711;SDS011;11523;50.390;8.072;2023-02-14T19:10:24;40.08;;;27.35;;